DLH85K LEBB-EDDF
Flight info
| Callsign | DLH85K |
|---|---|
| Flight time | N/A |
| Altitude | 34000 |
| Route | BISKA5A BISKA P87 BELEN DCT ECRIM DCT DIDIG DCT TIRAV DCT ERJAZ DCT PIWIZ DCT TSU DCT OQQAL DCT RANUX/N0454F350 DCT VALEK DCT LIPNI UN858 LIMGO/N0452F330 Z111 RAMOB IMCOM1A |
| Aircraft | A321/M-SDE3FGHIRWY/LB1 |
Departure
| Time | N/A |
|---|---|
| Airport | Bilbao Airport (LEBB) |
Arrival
| Time | 2026-05-06 11:04 |
|---|---|
| Airport | Frankfurt Main Airport (EDDF) |
| Time | Latitude | Longitude | Altitude | Speed | Heading |
|---|---|---|---|---|---|
| 2026-05-06 11:00 | 50.08502 | 8.69855 | 2756 ft | 175 kts | 248° |
| 2026-05-06 11:01 | 50.08084 | 8.68091 | 2500 ft | 171 kts | 248° |
| 2026-05-06 11:01 | 50.07681 | 8.66390 | 2260 ft | 165 kts | 248° |
| 2026-05-06 11:01 | 50.07292 | 8.64754 | 2059 ft | 155 kts | 247° |
| 2026-05-06 11:01 | 50.06925 | 8.63209 | 1820 ft | 149 kts | 248° |
| 2026-05-06 11:02 | 50.06567 | 8.61702 | 1598 ft | 148 kts | 246° |
| 2026-05-06 11:02 | 50.06212 | 8.60209 | 1376 ft | 148 kts | 248° |
| 2026-05-06 11:02 | 50.05862 | 8.58742 | 1162 ft | 145 kts | 247° |
| 2026-05-06 11:02 | 50.05517 | 8.57294 | 955 ft | 140 kts | 246° |
| 2026-05-06 11:03 | 50.05180 | 8.55883 | 776 ft | 139 kts | 246° |
| 2026-05-06 11:03 | 50.04842 | 8.54467 | 575 ft | 141 kts | 246° |
| 2026-05-06 11:03 | 50.04501 | 8.53041 | 375 ft | 140 kts | 247° |
| 2026-05-06 11:03 | 50.04198 | 8.51763 | 336 ft | 97 kts | 251° |
| 2026-05-06 11:04 | 50.04061 | 8.51194 | 328 ft | 32 kts | 249° |
| 2026-05-06 11:04 | 50.03924 | 8.50939 | 326 ft | 26 kts | 219° |
| 2026-05-06 11:04 | 50.03815 | 8.50839 | 332 ft | 14 kts | 174° |
| 2026-05-06 11:04 | 50.03788 | 8.50954 | 335 ft | 15 kts | 72° |
| 2026-05-06 11:05 | 50.03827 | 8.51124 | 332 ft | 17 kts | 70° |
| 2026-05-06 11:05 | 50.03871 | 8.51303 | 332 ft | 18 kts | 69° |
| 2026-05-06 11:05 | 50.03917 | 8.51496 | 334 ft | 20 kts | 70° |
| 2026-05-06 11:05 | 50.03966 | 8.51695 | 334 ft | 20 kts | 69° |
| 2026-05-06 11:06 | 50.04015 | 8.51898 | 334 ft | 20 kts | 69° |
| 2026-05-06 11:06 | 50.04062 | 8.52097 | 339 ft | 19 kts | 69° |
| 2026-05-06 11:06 | 50.04105 | 8.52287 | 351 ft | 18 kts | 69° |
| 2026-05-06 11:06 | 50.04150 | 8.52466 | 349 ft | 17 kts | 68° |
| 2026-05-06 11:07 | 50.04190 | 8.52634 | 354 ft | 16 kts | 68° |
| 2026-05-06 11:07 | 50.04232 | 8.52804 | 353 ft | 20 kts | 69° |
| 2026-05-06 11:07 | 50.04287 | 8.53037 | 358 ft | 24 kts | 70° |
| 2026-05-06 11:07 | 50.04340 | 8.53259 | 366 ft | 20 kts | 70° |
| 2026-05-06 11:08 | 50.04393 | 8.53495 | 375 ft | 25 kts | 79° |
| 2026-05-06 11:08 | 50.04412 | 8.53761 | 375 ft | 25 kts | 84° |
| 2026-05-06 11:08 | 50.04430 | 8.54032 | 375 ft | 25 kts | 84° |
| 2026-05-06 11:08 | 50.04448 | 8.54308 | 374 ft | 25 kts | 84° |
| 2026-05-06 11:09 | 50.04439 | 8.54550 | 369 ft | 25 kts | 109° |
| 2026-05-06 11:09 | 50.04324 | 8.54763 | 358 ft | 23 kts | 150° |
| 2026-05-06 11:09 | 50.04193 | 8.54840 | 356 ft | 21 kts | 159° |
| 2026-05-06 11:09 | 50.04077 | 8.54906 | 351 ft | 17 kts | 158° |
| 2026-05-06 11:10 | 50.03970 | 8.54971 | 356 ft | 17 kts | 160° |
| 2026-05-06 11:10 | 50.03870 | 8.55030 | 357 ft | 15 kts | 150° |
| 2026-05-06 11:10 | 50.03864 | 8.55178 | 350 ft | 15 kts | 71° |
| 2026-05-06 11:10 | 50.03902 | 8.55337 | 354 ft | 16 kts | 69° |
| 2026-05-06 11:11 | 50.03941 | 8.55504 | 356 ft | 17 kts | 69° |
| 2026-05-06 11:11 | 50.03983 | 8.55678 | 354 ft | 18 kts | 70° |
| 2026-05-06 11:11 | 50.04026 | 8.55861 | 358 ft | 18 kts | 71° |
| 2026-05-06 11:11 | 50.04069 | 8.56046 | 359 ft | 18 kts | 68° |
| 2026-05-06 11:12 | 50.04116 | 8.56232 | 355 ft | 19 kts | 70° |
| 2026-05-06 11:12 | 50.04161 | 8.56422 | 358 ft | 19 kts | 69° |
| 2026-05-06 11:12 | 50.04205 | 8.56609 | 359 ft | 18 kts | 69° |
| 2026-05-06 11:12 | 50.04253 | 8.56778 | 367 ft | 16 kts | 46° |
| 2026-05-06 11:13 | 50.04346 | 8.56829 | 360 ft | 14 kts | 12° |
| 2026-05-06 11:13 | 50.04443 | 8.56855 | 359 ft | 14 kts | 12° |
| 2026-05-06 11:13 | 50.04545 | 8.56889 | 359 ft | 16 kts | 13° |
| 2026-05-06 11:13 | 50.04659 | 8.56938 | 363 ft | 14 kts | 23° |
| 2026-05-06 11:14 | 50.04749 | 8.57004 | 361 ft | 15 kts | 23° |
| 2026-05-06 11:14 | 50.04840 | 8.57067 | 360 ft | 10 kts | 25° |
| 2026-05-06 11:14 | 50.04877 | 8.57055 | 359 ft | 5 kts | 300° |
| 2026-05-06 11:14 | 50.04888 | 8.57016 | 357 ft | 3 kts | 295° |
| 2026-05-06 11:15 | 50.04894 | 8.56997 | 365 ft | 1 kts | 295° |
| 2026-05-06 11:15 | 50.04894 | 8.56996 | 365 ft | 0 kts | 295° |